Time;durP1;ratioP1;P1;durP2;ratioP2;P2;SDS_P1;SDS_P2;PMS_P1;PMS_P2;Temp;Humidity;BMP_temperature;BMP_pressure;BME280_temperature;BME280_humidity;BME280_pressure;Samples;Min_cycle;Max_cycle;Signal;HPM_P1;HPM_P2
2023/12/19 00:02:23;;;;;;;;;;;11.50;88.20;;;;;;5013128;28;19905;-79
2023/12/19 00:04:48;;;;;;;;;;;11.50;88.20;;;;;;5027997;28;19909;-78
2023/12/19 00:07:14;;;;;;;;;;;11.50;88.20;;;;;;5027809;28;19906;-79
2023/12/19 00:09:40;;;;;;;;;;;11.50;88.20;;;;;;5027725;28;20266;-78
2023/12/19 00:12:06;;;;;;;;;;;11.50;88.20;;;;;;5012608;28;19905;-78
2023/12/19 00:14:32;;;;;;;;;;;11.50;88.10;;;;;;5026766;28;19960;-78
2023/12/19 00:16:58;;;;;;;;;;;11.50;88.20;;;;;;5027707;28;19905;-78
2023/12/19 00:19:23;;;;;;;;;;;11.50;88.70;;;;;;5011887;28;19952;-77
2023/12/19 00:21:49;;;;;;;;;;;11.50;88.20;;;;;;5027407;28;19910;-77
2023/12/19 00:24:14;;;;;;;;;;;11.50;88.30;;;;;;5012264;28;19905;-77
2023/12/19 00:26:40;;;;;;;;;;;11.50;88.30;;;;;;5027562;28;19910;-80
2023/12/19 00:29:05;;;;;;;;;;;11.50;88.20;;;;;;5026260;28;19910;-78
2023/12/19 00:31:30;;;;;;;;;;;11.50;88.20;;;;;;5027638;28;20282;-78
2023/12/19 00:33:56;;;;;;;;;;;11.50;88.30;;;;;;5027334;28;20517;-78
2023/12/19 00:36:21;;;;;;;;;;;11.50;88.30;;;;;;5027520;28;19909;-77
2023/12/19 00:38:47;;;;;;;;;;;11.50;88.20;;;;;;5027338;28;19909;-78
2023/12/19 00:41:12;;;;;;;;;;;11.50;88.20;;;;;;5027371;28;19953;-79
2023/12/19 00:43:39;;;;;;;;;;;11.50;88.20;;;;;;5027613;28;19906;-78
2023/12/19 00:46:05;;;;;;;;;;;11.50;88.20;;;;;;5027527;28;19906;-78
2023/12/19 00:48:31;;;;;;;;;;;11.50;88.30;;;;;;5010754;28;20384;-77
2023/12/19 00:50:56;;;;;;;;;;;11.50;88.20;;;;;;5027377;28;19914;-78
2023/12/19 00:53:23;;;;;;;;;;;11.50;88.20;;;;;;5010670;28;20000;-79
2023/12/19 00:55:48;;;;;;;;;;;11.50;88.30;;;;;;5027419;28;19905;-78
2023/12/19 00:58:14;;;;;;;;;;;11.50;88.30;;;;;;5012118;28;19913;-77
2023/12/19 01:00:39;;;;;;;;;;;11.50;88.30;;;;;;5012074;28;19952;-79
2023/12/19 01:03:04;;;;;;;;;;;11.50;88.30;;;;;;5027182;28;19906;-78
2023/12/19 01:05:30;;;;;;;;;;;11.50;88.30;;;;;;5010655;28;20419;-78
2023/12/19 01:07:56;;;;;;;;;;;11.50;88.30;;;;;;5027572;28;19905;-78
2023/12/19 01:10:21;;;;;;;;;;;11.50;88.30;;;;;;5010409;28;19914;-77
2023/12/19 01:12:47;;;;;;;;;;;11.50;88.30;;;;;;5027408;28;21598;-76
2023/12/19 01:15:13;;;;;;;;;;;11.50;88.30;;;;;;5012016;28;19910;-76
2023/12/19 01:17:38;;;;;;;;;;;11.50;88.20;;;;;;5027182;28;19960;-78
2023/12/19 01:20:04;;;;;;;;;;;11.50;88.30;;;;;;5011675;28;19905;-76
2023/12/19 01:22:29;;;;;;;;;;;11.50;88.30;;;;;;5027167;28;19913;-77
2023/12/19 01:24:55;;;;;;;;;;;11.50;88.30;;;;;;5010513;28;19913;-78
2023/12/19 01:27:21;;;;;;;;;;;11.50;88.20;;;;;;5011715;28;19916;-78
2023/12/19 01:29:46;;;;;;;;;;;11.50;88.30;;;;;;5026799;28;19906;-78
2023/12/19 01:32:12;;;;;;;;;;;11.50;88.30;;;;;;5010344;28;20385;-78
2023/12/19 01:34:37;;;;;;;;;;;11.50;88.30;;;;;;5011954;28;20286;-77
2023/12/19 01:37:03;;;;;;;;;;;11.50;88.30;;;;;;5027006;28;20332;-79
2023/12/19 01:39:28;;;;;;;;;;;11.50;88.20;;;;;;5027668;28;20410;-76
2023/12/19 01:41:53;;;;;;;;;;;11.50;88.20;;;;;;5030648;28;19912;-79
2023/12/19 01:44:19;;;;;;;;;;;11.50;88.20;;;;;;5030558;28;19921;-78
2023/12/19 01:46:47;;;;;;;;;;;11.50;88.20;;;;;;5030688;28;19912;-77
2023/12/19 01:49:13;;;;;;;;;;;11.50;88.30;;;;;;5030230;28;19979;-78
2023/12/19 01:51:39;;;;;;;;;;;11.50;88.20;;;;;;5030571;28;20365;-78
2023/12/19 01:54:04;;;;;;;;;;;11.50;88.20;;;;;;5014883;28;19963;-78
2023/12/19 01:56:31;;;;;;;;;;;11.50;88.20;;;;;;5030452;28;19906;-79
2023/12/19 01:58:56;;;;;;;;;;;11.50;88.10;;;;;;5030459;28;19906;-79
2023/12/19 02:01:22;;;;;;;;;;;11.50;88.10;;;;;;5015070;28;20354;-79
2023/12/19 02:03:47;;;;;;;;;;;11.50;88.20;;;;;;5030534;28;19960;-78
2023/12/19 02:06:13;;;;;;;;;;;11.50;88.20;;;;;;5015327;28;19909;-78
2023/12/19 02:08:39;;;;;;;;;;;11.50;88.20;;;;;;5015178;28;19909;-79
2023/12/19 02:11:04;;;;;;;;;;;11.50;88.20;;;;;;5013939;28;19909;-79
2023/12/19 02:13:30;;;;;;;;;;;11.50;88.10;;;;;;5014834;28;20274;-78
2023/12/19 02:15:55;;;;;;;;;;;11.50;88.10;;;;;;5030094;28;19906;-78
2023/12/19 02:18:21;;;;;;;;;;;11.50;88.10;;;;;;5013490;28;19952;-78
2023/12/19 02:20:47;;;;;;;;;;;11.50;88.10;;;;;;5015230;28;19913;-78
2023/12/19 02:23:13;;;;;;;;;;;11.50;88.10;;;;;;5030422;28;19905;-79
2023/12/19 02:25:38;;;;;;;;;;;11.50;88.10;;;;;;5030464;28;20718;-78
2023/12/19 02:28:04;;;;;;;;;;;11.50;88.10;;;;;;5030155;28;19947;-78
2023/12/19 02:30:30;;;;;;;;;;;11.50;88.10;;;;;;5014494;28;19910;-78
2023/12/19 02:32:55;;;;;;;;;;;11.50;88.10;;;;;;5029995;28;19971;-79
2023/12/19 02:35:21;;;;;;;;;;;11.50;88.10;;;;;;5014692;28;19987;-78
2023/12/19 02:37:47;;;;;;;;;;;11.50;88.00;;;;;;5014818;28;19906;-79
2023/12/19 02:40:12;;;;;;;;;;;11.50;88.20;;;;;;5029490;28;19959;-78
2023/12/19 02:42:41;;;;;;;;;;;11.50;88.10;;;;;;5014521;28;19944;-79
2023/12/19 02:45:07;;;;;;;;;;;11.50;88.10;;;;;;5029834;28;19905;-79
2023/12/19 02:47:33;;;;;;;;;;;11.50;88.00;;;;;;5013103;28;19912;-78
2023/12/19 02:49:59;;;;;;;;;;;11.60;88.20;;;;;;5013960;28;20309;-79
2023/12/19 02:52:24;;;;;;;;;;;11.50;88.10;;;;;;5028940;28;19909;-79
2023/12/19 02:54:50;;;;;;;;;;;11.50;88.10;;;;;;5029506;28;19921;-79
2023/12/19 02:57:15;;;;;;;;;;;11.50;88.00;;;;;;5029477;28;19949;-79
2023/12/19 02:59:41;;;;;;;;;;;11.50;88.00;;;;;;5014132;28;20421;-78
2023/12/19 03:02:06;;;;;;;;;;;11.50;88.10;;;;;;5013041;28;19905;-79
2023/12/19 03:04:31;;;;;;;;;;;11.50;88.10;;;;;;5029157;28;19967;-79
2023/12/19 03:06:57;;;;;;;;;;;11.50;88.10;;;;;;5014210;28;20277;-78
2023/12/19 03:09:22;;;;;;;;;;;11.50;88.10;;;;;;5029098;28;19912;-78
2023/12/19 03:12:03;;;;;;;;;;;11.50;88.10;;;;;;5013052;28;19910;-78
2023/12/19 03:14:29;;;;;;;;;;;11.50;88.00;;;;;;5029202;28;19940;-79
2023/12/19 03:16:54;;;;;;;;;;;11.50;88.10;;;;;;5028935;28;19953;-78
2023/12/19 03:19:20;;;;;;;;;;;11.50;88.10;;;;;;5028854;28;19999;-79
2023/12/19 03:21:45;;;;;;;;;;;11.50;88.10;;;;;;5013741;28;19996;-79
2023/12/19 03:24:11;;;;;;;;;;;11.50;88.00;;;;;;5028947;28;19960;-79
2023/12/19 03:26:36;;;;;;;;;;;11.60;88.20;;;;;;5028940;28;19905;-79
2023/12/19 03:29:01;;;;;;;;;;;11.50;88.10;;;;;;5014069;28;19906;-79
2023/12/19 03:31:27;;;;;;;;;;;11.50;88.10;;;;;;5028802;28;20361;-79
2023/12/19 03:33:52;;;;;;;;;;;11.50;88.10;;;;;;5028935;28;19909;-79
2023/12/19 03:36:18;;;;;;;;;;;11.50;88.10;;;;;;5028845;28;19909;-79
2023/12/19 03:38:43;;;;;;;;;;;11.50;88.10;;;;;;5026328;28;19922;-78
2023/12/19 03:41:09;;;;;;;;;;;11.50;88.10;;;;;;5028519;28;19909;-79
2023/12/19 03:43:34;;;;;;;;;;;11.50;88.10;;;;;;5012075;28;20270;-78
2023/12/19 03:46:02;;;;;;;;;;;11.50;88.10;;;;;;5013736;28;20362;-78
2023/12/19 03:48:28;;;;;;;;;;;11.50;88.10;;;;;;5011846;28;19919;-78
2023/12/19 03:50:54;;;;;;;;;;;11.50;88.10;;;;;;5028952;28;20000;-78
2023/12/19 03:53:19;;;;;;;;;;;11.50;88.20;;;;;;5011976;28;20008;-78
2023/12/19 03:55:45;;;;;;;;;;;11.50;88.20;;;;;;5028727;28;20060;-79
2023/12/19 03:58:10;;;;;;;;;;;11.50;88.10;;;;;;5012976;28;20412;-79
2023/12/19 04:00:36;;;;;;;;;;;11.50;88.10;;;;;;5011728;28;19910;-78
2023/12/19 04:03:02;;;;;;;;;;;11.50;88.10;;;;;;5011838;28;19909;-79
2023/12/19 04:05:27;;;;;;;;;;;11.50;88.20;;;;;;5011716;28;20273;-79
2023/12/19 04:07:52;;;;;;;;;;;11.50;88.10;;;;;;5012048;28;19913;-79
2023/12/19 04:10:18;;;;;;;;;;;11.50;88.10;;;;;;5011752;28;19975;-79
2023/12/19 04:12:44;;;;;;;;;;;11.50;88.10;;;;;;5013060;28;20059;-79
2023/12/19 04:15:09;;;;;;;;;;;11.40;88.00;;;;;;5013099;28;20358;-79
2023/12/19 04:17:35;;;;;;;;;;;11.50;88.00;;;;;;5011902;28;19913;-78
2023/12/19 04:20:01;;;;;;;;;;;11.50;88.10;;;;;;5011558;28;20033;-78
2023/12/19 04:22:26;;;;;;;;;;;11.50;87.90;;;;;;5011589;28;19956;-78
2023/12/19 04:24:52;;;;;;;;;;;11.50;88.10;;;;;;5007546;28;19924;-80
2023/12/19 04:27:17;;;;;;;;;;;11.50;88.10;;;;;;5011831;28;20346;-79
2023/12/19 04:29:45;;;;;;;;;;;11.40;88.10;;;;;;5008627;28;20365;-78
2023/12/19 04:32:13;;;;;;;;;;;11.50;87.90;;;;;;5023719;28;21568;-79
2023/12/19 04:34:39;;;;;;;;;;;11.50;87.90;;;;;;5024067;28;20690;-78
2023/12/19 04:37:04;;;;;;;;;;;11.50;88.00;;;;;;5023950;28;19910;-80
2023/12/19 04:39:29;;;;;;;;;;;11.50;88.10;;;;;;5025296;28;20434;-78
2023/12/19 04:41:55;;;;;;;;;;;11.40;87.90;;;;;;5024244;28;19920;-79
2023/12/19 04:44:21;;;;;;;;;;;11.50;88.00;;;;;;5024177;28;19917;-78
2023/12/19 04:46:47;;;;;;;;;;;11.40;87.90;;;;;;5023758;28;19921;-78
2023/12/19 04:49:13;;;;;;;;;;;11.40;88.00;;;;;;5008977;28;20446;-78
2023/12/19 04:51:39;;;;;;;;;;;11.50;88.10;;;;;;5023950;28;20263;-78
2023/12/19 04:54:06;;;;;;;;;;;11.50;88.00;;;;;;5025289;28;19927;-79
2023/12/19 04:56:31;;;;;;;;;;;11.40;87.90;;;;;;5010258;28;19914;-79
2023/12/19 04:58:57;;;;;;;;;;;11.40;88.00;;;;;;5024483;28;19920;-79
2023/12/19 05:01:23;;;;;;;;;;;11.50;87.90;;;;;;5024771;28;19913;-79
2023/12/19 05:03:48;;;;;;;;;;;11.50;88.00;;;;;;5024208;28;19914;-79
2023/12/19 05:06:17;;;;;;;;;;;11.50;88.00;;;;;;5042754;28;19909;-79
2023/12/19 05:08:43;;;;;;;;;;;11.50;88.00;;;;;;5028348;28;19959;-79
2023/12/19 05:11:09;;;;;;;;;;;11.40;88.30;;;;;;5030511;28;19913;-79
2023/12/19 05:13:34;;;;;;;;;;;11.50;88.00;;;;;;5028693;28;20008;-80
2023/12/19 05:16:08;;;;;;;;;;;11.50;87.90;;;;;;5029859;28;19932;-79
2023/12/19 05:18:36;;;;;;;;;;;11.40;87.90;;;;;;5031807;28;19913;-78
2023/12/19 05:21:02;;;;;;;;;;;11.40;87.90;;;;;;5030982;28;19921;-78
2023/12/19 05:23:27;;;;;;;;;;;11.40;87.80;;;;;;5028366;28;19917;-77
2023/12/19 05:25:53;;;;;;;;;;;11.40;87.90;;;;;;5028141;28;19917;-79
2023/12/19 05:28:18;;;;;;;;;;;11.40;87.90;;;;;;5028643;28;19917;-78
2023/12/19 05:30:44;;;;;;;;;;;11.40;87.80;;;;;;5027982;28;19962;-77
2023/12/19 05:33:09;;;;;;;;;;;11.40;88.40;;;;;;5029515;28;19913;-77
2023/12/19 05:35:35;;;;;;;;;;;11.50;87.80;;;;;;5029717;28;19909;-78
2023/12/19 05:38:01;;;;;;;;;;;11.40;87.80;;;;;;5031111;28;20386;-79
2023/12/19 05:40:27;;;;;;;;;;;11.40;87.80;;;;;;5014017;28;20005;-79
2023/12/19 05:42:56;;;;;;;;;;;11.50;87.80;;;;;;5011149;28;20095;-79
2023/12/19 05:45:21;;;;;;;;;;;11.50;87.90;;;;;;5010603;28;19916;-79
2023/12/19 05:47:47;;;;;;;;;;;11.50;87.90;;;;;;5010318;28;19913;-78
2023/12/19 05:50:12;;;;;;;;;;;11.50;87.90;;;;;;5010468;28;20394;-78
2023/12/19 05:52:38;;;;;;;;;;;11.50;87.90;;;;;;5009183;28;19921;-78
2023/12/19 05:55:03;;;;;;;;;;;11.40;87.80;;;;;;5026469;28;19917;-79
2023/12/19 05:57:29;;;;;;;;;;;11.50;87.90;;;;;;5010169;28;20003;-77
2023/12/19 05:59:54;;;;;;;;;;;11.50;87.90;;;;;;5010733;28;19917;-78
2023/12/19 06:02:21;;;;;;;;;;;11.50;87.90;;;;;;5010121;28;19976;-78
2023/12/19 06:04:47;;;;;;;;;;;11.50;87.90;;;;;;5011295;28;20032;-78
2023/12/19 06:07:12;;;;;;;;;;;11.40;87.90;;;;;;5009620;28;19917;-78
2023/12/19 06:09:38;;;;;;;;;;;11.50;88.00;;;;;;5008729;28;20699;-79
2023/12/19 06:12:04;;;;;;;;;;;11.40;87.90;;;;;;5010555;28;19918;-79
2023/12/19 06:14:29;;;;;;;;;;;11.50;87.90;;;;;;5009836;28;19910;-78
2023/12/19 06:16:55;;;;;;;;;;;11.40;87.90;;;;;;5011842;28;19913;-79
2023/12/19 06:19:20;;;;;;;;;;;11.40;87.90;;;;;;5011176;28;19960;-78
2023/12/19 06:21:45;;;;;;;;;;;11.40;87.90;;;;;;5012581;28;19909;-79
2023/12/19 06:24:11;;;;;;;;;;;11.50;88.00;;;;;;5011379;28;19909;-78
2023/12/19 06:26:36;;;;;;;;;;;11.50;88.00;;;;;;5009403;28;20456;-78
2023/12/19 06:29:03;;;;;;;;;;;11.40;87.90;;;;;;5010006;28;19909;-79
2023/12/19 06:31:29;;;;;;;;;;;11.40;87.80;;;;;;5013520;28;20004;-79
2023/12/19 06:33:54;;;;;;;;;;;11.50;87.90;;;;;;5013571;28;19949;-79
2023/12/19 06:36:30;;;;;;;;;;;11.40;87.90;;;;;;5013607;28;19953;-78
2023/12/19 06:38:55;;;;;;;;;;;11.40;87.90;;;;;;5013025;28;19910;-78
2023/12/19 06:41:20;;;;;;;;;;;11.40;88.00;;;;;;5014785;28;20012;-78
2023/12/19 06:43:46;;;;;;;;;;;11.50;88.00;;;;;;5013167;28;19913;-79
2023/12/19 06:46:15;;;;;;;;;;;11.40;88.00;;;;;;5013296;28;19910;-78
2023/12/19 06:48:41;;;;;;;;;;;11.50;88.00;;;;;;5012989;28;20622;-79
2023/12/19 06:51:07;;;;;;;;;;;11.40;88.00;;;;;;5013384;28;19914;-80
2023/12/19 06:53:32;;;;;;;;;;;11.40;88.00;;;;;;5013140;28;19975;-78
2023/12/19 06:55:58;;;;;;;;;;;11.40;88.00;;;;;;5012999;28;20302;-79
2023/12/19 06:58:23;;;;;;;;;;;11.40;88.00;;;;;;5013873;28;19935;-78
2023/12/19 07:00:48;;;;;;;;;;;11.40;88.00;;;;;;5013010;28;19910;-78
2023/12/19 07:03:14;;;;;;;;;;;11.40;88.00;;;;;;5012470;28;19918;-78
2023/12/19 07:05:39;;;;;;;;;;;11.40;88.00;;;;;;5012868;28;19920;-79
2023/12/19 07:08:05;;;;;;;;;;;11.40;88.00;;;;;;5012737;28;20260;-78
2023/12/19 07:10:31;;;;;;;;;;;11.40;88.00;;;;;;5013936;28;19914;-78
2023/12/19 07:12:56;;;;;;;;;;;11.40;88.10;;;;;;5012758;28;20031;-78
2023/12/19 07:15:22;;;;;;;;;;;11.50;88.10;;;;;;5012767;28;20346;-79
2023/12/19 07:17:47;;;;;;;;;;;11.40;88.10;;;;;;5014134;28;19980;-78
2023/12/19 07:20:13;;;;;;;;;;;11.50;88.10;;;;;;5012506;28;19910;-79
2023/12/19 07:22:39;;;;;;;;;;;11.50;88.10;;;;;;5012391;28;19996;-78
2023/12/19 07:25:05;;;;;;;;;;;11.40;88.00;;;;;;5012775;28;19910;-79
2023/12/19 07:27:31;;;;;;;;;;;11.40;88.10;;;;;;5012716;28;20012;-79
2023/12/19 07:29:58;;;;;;;;;;;11.40;88.10;;;;;;5012162;28;19920;-78
2023/12/19 07:32:24;;;;;;;;;;;11.40;88.10;;;;;;5012699;28;20345;-79
2023/12/19 07:34:49;;;;;;;;;;;11.40;88.00;;;;;;5012348;28;19913;-79
2023/12/19 07:37:15;;;;;;;;;;;11.50;88.10;;;;;;5012228;28;19916;-78
2023/12/19 07:39:40;;;;;;;;;;;11.40;88.00;;;;;;5012009;28;19910;-80
2023/12/19 07:42:05;;;;;;;;;;;11.50;88.10;;;;;;5012173;28;20378;-79
2023/12/19 07:44:31;;;;;;;;;;;11.40;88.10;;;;;;5012473;28;19916;-78
2023/12/19 07:46:57;;;;;;;;;;;11.40;88.10;;;;;;5012468;28;19913;-79
2023/12/19 07:49:22;;;;;;;;;;;11.40;88.10;;;;;;5012106;28;19920;-78
2023/12/19 07:51:48;;;;;;;;;;;11.40;88.10;;;;;;5013142;28;19913;-79
2023/12/19 07:54:13;;;;;;;;;;;11.40;88.10;;;;;;5027722;28;19924;-78
2023/12/19 07:56:40;;;;;;;;;;;11.40;88.10;;;;;;5028335;28;19957;-79
2023/12/19 07:59:05;;;;;;;;;;;11.40;88.10;;;;;;5027859;28;19992;-78
2023/12/19 08:01:31;;;;;;;;;;;11.50;88.10;;;;;;5028079;28;20492;-79
2023/12/19 08:03:56;;;;;;;;;;;11.40;88.10;;;;;;5028208;28;20016;-79
2023/12/19 08:06:21;;;;;;;;;;;11.40;88.20;;;;;;5028283;28;20358;-78
2023/12/19 08:08:50;;;;;;;;;;;11.40;88.10;;;;;;5027914;28;19910;-79
2023/12/19 08:11:16;;;;;;;;;;;11.40;88.10;;;;;;5027924;28;20013;-78
2023/12/19 08:13:41;;;;;;;;;;;11.40;88.10;;;;;;5012674;28;19957;-78
2023/12/19 08:16:07;;;;;;;;;;;11.40;88.10;;;;;;5012883;28;19914;-79
2023/12/19 08:18:32;;;;;;;;;;;11.50;88.10;;;;;;5011409;28;19914;-80
2023/12/19 08:20:58;;;;;;;;;;;11.40;88.10;;;;;;5028077;28;19975;-78
2023/12/19 08:23:23;;;;;;;;;;;11.40;88.10;;;;;;5027785;28;19913;-77
2023/12/19 08:25:49;;;;;;;;;;;11.50;88.10;;;;;;5011500;28;19914;-78
2023/12/19 08:28:14;;;;;;;;;;;11.40;88.10;;;;;;5011065;28;19935;-78
2023/12/19 08:30:40;;;;;;;;;;;11.40;88.10;;;;;;5027678;28;20405;-78
2023/12/19 08:33:06;;;;;;;;;;;11.40;88.10;;;;;;5027718;28;20442;-79
2023/12/19 08:35:31;;;;;;;;;;;11.40;88.10;;;;;;5027780;28;19944;-78
2023/12/19 08:37:56;;;;;;;;;;;11.40;88.10;;;;;;5027553;28;20392;-78
2023/12/19 08:40:22;;;;;;;;;;;11.40;88.20;;;;;;5027469;28;20293;-78
2023/12/19 08:42:48;;;;;;;;;;;11.40;88.10;;;;;;5027423;28;20007;-78
2023/12/19 08:45:15;;;;;;;;;;;11.40;88.20;;;;;;5012367;28;19914;-78
2023/12/19 08:47:41;;;;;;;;;;;11.40;88.10;;;;;;5012403;28;19909;-78
2023/12/19 08:50:09;;;;;;;;;;;11.40;88.10;;;;;;5026820;28;20363;-78
2023/12/19 08:52:37;;;;;;;;;;;11.40;88.10;;;;;;5027326;28;19916;-79
2023/12/19 08:55:07;;;;;;;;;;;11.40;88.10;;;;;;5011966;28;19979;-79
2023/12/19 08:57:34;;;;;;;;;;;11.40;88.10;;;;;;5012447;28;19910;-79
2023/12/19 08:59:59;;;;;;;;;;;11.40;88.10;;;;;;5012118;28;19945;-78
2023/12/19 09:02:24;;;;;;;;;;;11.40;88.10;;;;;;5012162;28;19957;-78
2023/12/19 09:04:50;;;;;;;;;;;11.50;88.20;;;;;;5012095;28;20349;-78
2023/12/19 09:07:15;;;;;;;;;;;11.40;88.10;;;;;;5010971;28;19909;-78
2023/12/19 09:09:41;;;;;;;;;;;11.40;88.20;;;;;;5026937;28;19915;-78
2023/12/19 09:12:06;;;;;;;;;;;11.40;88.20;;;;;;5012290;28;19959;-79
2023/12/19 09:14:31;;;;;;;;;;;11.40;88.20;;;;;;5010902;28;19957;-79
2023/12/19 09:16:57;;;;;;;;;;;11.40;88.20;;;;;;5012219;28;19920;-79
2023/12/19 09:19:22;;;;;;;;;;;11.40;88.10;;;;;;5010651;28;20638;-79
2023/12/19 09:21:48;;;;;;;;;;;11.40;88.10;;;;;;5027332;28;19967;-79
2023/12/19 09:24:13;;;;;;;;;;;11.40;88.20;;;;;;5011910;28;20000;-78
2023/12/19 09:26:39;;;;;;;;;;;11.40;88.20;;;;;;5012107;28;20385;-78
2023/12/19 09:29:07;;;;;;;;;;;11.40;88.20;;;;;;5011760;28;19910;-79
2023/12/19 09:31:32;;;;;;;;;;;11.40;88.20;;;;;;5027137;28;19920;-79
2023/12/19 09:33:58;;;;;;;;;;;11.40;88.10;;;;;;5010518;28;20019;-79
2023/12/19 09:36:26;;;;;;;;;;;11.50;88.20;;;;;;5027245;28;19910;-78
2023/12/19 09:38:52;;;;;;;;;;;11.40;88.10;;;;;;5011835;28;19910;-79
2023/12/19 09:41:17;;;;;;;;;;;11.40;88.10;;;;;;5027186;28;20255;-79
2023/12/19 09:43:43;;;;;;;;;;;11.50;88.20;;;;;;5027199;28;19909;-78
2023/12/19 09:46:10;;;;;;;;;;;11.40;88.10;;;;;;5027387;28;20357;-79
2023/12/19 09:48:36;;;;;;;;;;;11.40;88.10;;;;;;5026828;28;19993;-79
2023/12/19 09:51:02;;;;;;;;;;;11.40;88.10;;;;;;5027028;28;19917;-78
2023/12/19 09:53:32;;;;;;;;;;;11.40;88.20;;;;;;5011684;28;20433;-77
2023/12/19 09:55:58;;;;;;;;;;;11.40;88.20;;;;;;5026963;28;19916;-79
2023/12/19 09:58:24;;;;;;;;;;;11.40;88.10;;;;;;5011710;28;19916;-79
2023/12/19 10:00:51;;;;;;;;;;;11.40;88.30;;;;;;5013339;28;19914;-79
2023/12/19 10:03:17;;;;;;;;;;;11.40;88.20;;;;;;5015394;28;20374;-79
2023/12/19 10:05:43;;;;;;;;;;;11.40;88.20;;;;;;5014060;28;19917;-80
2023/12/19 10:08:08;;;;;;;;;;;11.40;88.10;;;;;;5013901;28;19921;-79
2023/12/19 10:10:50;;;;;;;;;;;11.40;88.20;;;;;;5030125;28;19914;-79
2023/12/19 10:13:28;;;;;;;;;;;11.40;88.20;;;;;;5030478;28;19916;-77
2023/12/19 10:16:17;;;;;;;;;;;11.40;88.20;;;;;;5015060;28;19909;-79
2023/12/19 10:18:44;;;;;;;;;;;11.40;88.20;;;;;;5029904;28;20370;-79
2023/12/19 10:21:10;;;;;;;;;;;11.40;88.20;;;;;;5030265;28;19909;-79
2023/12/19 10:23:42;;;;;;;;;;;11.40;88.20;;;;;;5030150;28;19917;-78
2023/12/19 10:26:08;;;;;;;;;;;11.40;88.20;;;;;;5029964;28;19909;-78
2023/12/19 10:28:34;;;;;;;;;;;11.40;88.20;;;;;;5013330;28;19909;-80
2023/12/19 10:31:06;;;;;;;;;;;11.40;88.20;;;;;;5029958;28;20111;-79
2023/12/19 10:33:39;;;;;;;;;;;11.40;88.20;;;;;;5013472;28;19916;-80
2023/12/19 10:36:04;;;;;;;;;;;11.40;88.20;;;;;;5015076;28;19917;-79
2023/12/19 10:38:44;;;;;;;;;;;11.40;88.20;;;;;;5013241;28;19913;-78
2023/12/19 10:41:09;;;;;;;;;;;11.40;88.80;;;;;;5029903;28;19932;-78
2023/12/19 10:43:38;;;;;;;;;;;11.40;88.20;;;;;;5013407;28;20563;-78
2023/12/19 10:46:03;;;;;;;;;;;11.40;88.20;;;;;;5029779;28;20526;-79
2023/12/19 10:48:29;;;;;;;;;;;11.40;88.20;;;;;;5012726;28;19909;-79
2023/12/19 10:50:55;;;;;;;;;;;11.40;88.20;;;;;;5013262;28;20011;-78
2023/12/19 10:53:20;;;;;;;;;;;11.40;88.20;;;;;;5012792;28;19920;-78
2023/12/19 10:55:50;;;;;;;;;;;11.40;88.20;;;;;;5014476;28;19909;-79
2023/12/19 10:58:17;;;;;;;;;;;11.40;88.20;;;;;;5029900;28;19917;-78
2023/12/19 11:00:43;;;;;;;;;;;11.40;88.30;;;;;;5029430;28;20334;-79
2023/12/19 11:03:22;;;;;;;;;;;11.40;88.20;;;;;;5029396;28;19997;-78
2023/12/19 11:05:48;;;;;;;;;;;11.40;88.30;;;;;;5029423;28;19989;-78
2023/12/19 11:08:17;;;;;;;;;;;11.40;88.20;;;;;;5029130;28;19953;-78
2023/12/19 11:10:49;;;;;;;;;;;11.40;88.20;;;;;;5029412;28;20029;-79
2023/12/19 11:13:15;;;;;;;;;;;11.40;88.10;;;;;;5012335;28;19913;-78
2023/12/19 11:15:51;;;;;;;;;;;11.40;88.20;;;;;;5029139;28;19983;-79
2023/12/19 11:18:26;;;;;;;;;;;11.40;88.20;;;;;;5029094;28;19929;-78
2023/12/19 11:21:18;;;;;;;;;;;11.40;88.20;;;;;;5012627;28;19920;-78
2023/12/19 11:23:43;;;;;;;;;;;11.40;88.20;;;;;;4998075;28;19965;-79
2023/12/19 11:26:12;;;;;;;;;;;11.40;88.20;;;;;;5012458;28;19937;-79
2023/12/19 11:28:39;;;;;;;;;;;11.40;88.20;;;;;;5014020;28;20019;-80
2023/12/19 11:31:24;;;;;;;;;;;11.40;88.20;;;;;;5013625;28;20285;-79
2023/12/19 11:33:49;;;;;;;;;;;11.40;88.20;;;;;;5028662;28;19916;-78
2023/12/19 11:36:15;;;;;;;;;;;11.40;88.20;;;;;;5029123;28;19913;-78
2023/12/19 11:38:40;;;;;;;;;;;11.50;88.30;;;;;;5028738;28;19909;-79
2023/12/19 11:41:06;;;;;;;;;;;11.40;88.20;;;;;;5029007;28;19994;-79
2023/12/19 11:43:31;;;;;;;;;;;11.40;88.20;;;;;;5013279;28;19909;-79
2023/12/19 11:46:03;;;;;;;;;;;11.50;88.20;;;;;;5012122;28;19920;-78
2023/12/19 11:48:35;;;;;;;;;;;11.50;88.20;;;;;;5011939;28;19917;-78
2023/12/19 11:51:01;;;;;;;;;;;11.50;88.20;;;;;;5028365;28;19913;-79
2023/12/19 11:53:27;;;;;;;;;;;11.40;88.20;;;;;;5028260;28;19913;-78
2023/12/19 11:56:11;;;;;;;;;;;11.40;88.20;;;;;;5028220;28;19913;-78
2023/12/19 11:58:47;;;;;;;;;;;11.40;88.20;;;;;;5011644;28;19909;-78
2023/12/19 12:01:13;;;;;;;;;;;11.50;88.30;;;;;;5028277;28;19968;-79
2023/12/19 12:03:38;;;;;;;;;;;11.50;88.30;;;;;;5027446;28;19918;-79
2023/12/19 12:06:04;;;;;;;;;;;11.40;88.20;;;;;;5027991;28;19909;-78
2023/12/19 12:08:29;;;;;;;;;;;11.40;88.20;;;;;;5027853;28;19917;-79
2023/12/19 12:10:59;;;;;;;;;;;11.40;88.30;;;;;;5027646;28;19913;-78
2023/12/19 12:13:26;;;;;;;;;;;11.40;88.30;;;;;;5027797;28;20401;-77
2023/12/19 12:15:57;;;;;;;;;;;11.40;88.30;;;;;;5027918;28;20358;-79
2023/12/19 12:18:24;;;;;;;;;;;11.40;88.20;;;;;;5010970;28;20438;-78
2023/12/19 12:20:50;;;;;;;;;;;11.50;88.30;;;;;;5027864;28;19967;-79
2023/12/19 12:23:21;;;;;;;;;;;11.40;88.30;;;;;;5011129;28;20297;-78
2023/12/19 12:25:54;;;;;;;;;;;11.50;88.30;;;;;;5027245;28;20263;-78
2023/12/19 12:28:21;;;;;;;;;;;11.40;88.20;;;;;;5012264;28;19921;-78
2023/12/19 12:30:47;;;;;;;;;;;11.40;88.20;;;;;;5012351;28;19913;-79
2023/12/19 12:33:12;;;;;;;;;;;11.40;88.30;;;;;;5012484;28;20371;-78
2023/12/19 12:35:38;;;;;;;;;;;11.40;88.30;;;;;;5027643;28;19983;-79
2023/12/19 12:38:06;;;;;;;;;;;11.40;88.20;;;;;;5027604;28;20007;-78
2023/12/19 12:40:33;;;;;;;;;;;11.40;88.30;;;;;;5027293;28;20346;-79
2023/12/19 12:43:17;;;;;;;;;;;11.40;88.20;;;;;;5027112;28;20506;-78
2023/12/19 12:45:43;;;;;;;;;;;11.40;88.20;;;;;;5011782;28;19909;-79
2023/12/19 12:48:12;;;;;;;;;;;11.40;88.20;;;;;;5027102;28;19920;-78
2023/12/19 12:50:37;;;;;;;;;;;11.40;88.20;;;;;;5026880;28;20402;-79
2023/12/19 12:53:03;;;;;;;;;;;11.40;88.30;;;;;;5011712;28;20014;-78
2023/12/19 12:55:28;;;;;;;;;;;11.40;88.30;;;;;;5027102;28;19917;-78
2023/12/19 12:58:02;;;;;;;;;;;11.50;88.30;;;;;;5012002;28;20388;-79
2023/12/19 13:00:28;;;;;;;;;;;11.40;88.20;;;;;;5026990;28;19980;-79
2023/12/19 13:02:54;;;;;;;;;;;11.40;88.20;;;;;;5010717;28;19999;-79
2023/12/19 13:05:19;;;;;;;;;;;11.50;88.40;;;;;;5027092;28;19952;-78
2023/12/19 13:07:45;;;;;;;;;;;11.50;88.40;;;;;;5012342;28;19975;-78
2023/12/19 13:10:10;;;;;;;;;;;11.40;88.30;;;;;;5026904;28;19913;-78
2023/12/19 13:12:36;;;;;;;;;;;11.40;88.20;;;;;;5011616;28;19909;-77
2023/12/19 13:15:02;;;;;;;;;;;11.40;88.30;;;;;;5027147;28;19917;-78
2023/12/19 13:17:27;;;;;;;;;;;11.40;88.20;;;;;;5026969;28;19910;-78
2023/12/19 13:19:53;;;;;;;;;;;11.40;88.20;;;;;;5011301;28;19960;-79
2023/12/19 13:22:18;;;;;;;;;;;11.40;88.20;;;;;;5011766;28;20000;-77
2023/12/19 13:24:44;;;;;;;;;;;11.40;88.30;;;;;;5010221;28;20025;-78
2023/12/19 13:27:09;;;;;;;;;;;11.40;88.30;;;;;;5026899;28;19961;-78
2023/12/19 13:29:34;;;;;;;;;;;11.40;88.30;;;;;;5011101;28;20008;-79
2023/12/19 13:32:00;;;;;;;;;;;11.50;88.30;;;;;;5011612;28;20427;-79
2023/12/19 13:34:27;;;;;;;;;;;11.40;88.20;;;;;;5010159;28;19920;-79
2023/12/19 13:36:52;;;;;;;;;;;11.40;88.30;;;;;;5014582;28;19929;-78
2023/12/19 13:39:20;;;;;;;;;;;11.50;88.30;;;;;;5015194;28;20313;-77
2023/12/19 13:41:45;;;;;;;;;;;11.50;88.30;;;;;;5030775;28;19917;-78
2023/12/19 13:44:11;;;;;;;;;;;11.50;88.30;;;;;;5030524;28;20641;-77
2023/12/19 13:46:36;;;;;;;;;;;11.40;88.20;;;;;;5013979;28;19917;-79
2023/12/19 13:49:02;;;;;;;;;;;11.40;88.20;;;;;;5015121;28;19920;-79
2023/12/19 13:51:27;;;;;;;;;;;11.40;88.30;;;;;;5030324;28;19937;-79
2023/12/19 13:53:53;;;;;;;;;;;11.40;88.20;;;;;;5029991;28;19917;-79
2023/12/19 13:56:19;;;;;;;;;;;11.40;88.20;;;;;;5030383;28;19913;-79
2023/12/19 13:58:45;;;;;;;;;;;11.50;88.30;;;;;;5014973;28;19914;-79
2023/12/19 14:01:10;;;;;;;;;;;11.40;88.20;;;;;;5030255;28;19916;-79
2023/12/19 14:03:38;;;;;;;;;;;11.40;88.20;;;;;;5030361;28;19913;-79
2023/12/19 14:06:03;;;;;;;;;;;11.40;88.30;;;;;;5013881;28;19917;-79
2023/12/19 14:08:29;;;;;;;;;;;11.50;88.30;;;;;;5030393;28;19910;-79
2023/12/19 14:10:54;;;;;;;;;;;11.50;88.30;;;;;;5014870;28;19913;-78
2023/12/19 14:13:20;;;;;;;;;;;11.40;88.20;;;;;;5015363;28;20643;-78